Houston, South Dakota
Current Conditions -  °F | °C
As of 6:55 PM on Friday 19 Dec 2014 (Local Time) from K9V9 Reporting Station
Haze Haze  
Wind Chill: 18°   Ceiling: Unl
Heat Index: 25°   Visibility: 5mi
Dew Point: 23°   Wind: 6mph
Humidity: 93%   Direction: 140°SE
Pressure: 29.99"   Gusts: NA
Location:  43.8859°N, 99.8336°W
Report Text: K9V9 200055Z AUTO 14005KT 5SM BR SCT100 M04/M05 A2999 RMK AO2 T10411051
Loading
Personal Weather Stations






























Interactive Weather Map New forecast layout! Learn more

10-Day Weather Forecast

Advertisements
Track Severe Weather on mobile